Airfield :
LOGIN :

Register | Disclaimer

   EN    FR    IT 

 










Legend :    VFR   Marginal VFR   IFR   Intensive IFR   Very Intensive IFR
Visi :
Ceiling :
>= 8 km
>= 3000ft
5 to 8 km
1000 to 3000 ft
1500m to 5 km
500 to 1000 ft
800 to 1500m
200 to 500 ft
< 800m
< 200 ft
Symbols :   Thunderstorms  Fog  Heavy snow  Heavy precipitations  Wind > 20 kt
SIGMETs :     Misc.  Thunderstorms  Icing  Turbulence  Mountain Waves  Volcanic Ashes






- Airport Elevation : 245 ft
- IATA code : BIQ


LFBZ - Biarritz

CURRENT METAR :
  • 081230Z AUTO 33005KT 300V010 9999 FEW021 SCT029 BKN034 11/06 Q1020 TEMPO SCT020TCU BKN030

EXPIRED METARs :
  • 081200Z AUTO 34005KT 9999 -RA FEW020 SCT045 OVC068 10/06 Q1020 TEMPO SCT020TCU BKN030
  • 081130Z AUTO 35005KT 290V030 9999 FEW020 BKN043 BKN050 10/06 Q1020 TEMPO SCT020TCU BKN030
  • 081100Z AUTO 31003KT 280V010 9999 FEW019 SCT049 OVC066 10/06 Q1019 TEMPO SCT020TCU BKN030
  • 081030Z AUTO 00000KT 9999 FEW018 OVC064 10/06 Q1019 TEMPO SCT020TCU BKN030
  • 081000Z AUTO 00000KT 9999 SCT018 SCT038 OVC060 10/07 Q1019 TEMPO SCT020TCU BKN030

TAF TAF LFBZ
Valid from the 08 at 12:00 until the 09 at 12:00 UTC


081100Z 0812/0912 32007KT 9999 BKN040
PROB30
TEMPO 0812/0818 -SHRA SCT020TCU BKN030
TEMPO 0820/0912 3000 RA BKN017



MET'MAP, your aeronautical weather chart ! - Copyright ORBIFLY December 2007 - Disclaimer

ORBIFLY MET'MAP TEAM :

Programming & Development : Alexandra Zaïnal
Concept & original design : Baudouin d'Aumeries
Assistance for programming : Marc-Olivier Méhu
Technical & hardware support : Manuel Goepfert

Contact : metmap@orbifly.com




SOURCES & CREDITS :

   NOAA